sensor_id;sensor_type;location;lat;lon;timestamp;temperature;humidity
52621;DHT22;38515;53.160;6.990;2022-07-23T00:00:19;13.90;99.90
52621;DHT22;38515;53.160;6.990;2022-07-23T00:02:45;13.80;99.90
52621;DHT22;38515;53.160;6.990;2022-07-23T00:05:11;13.80;99.90
52621;DHT22;38515;53.160;6.990;2022-07-23T00:07:37;13.80;99.90
52621;DHT22;38515;53.160;6.990;2022-07-23T00:10:04;13.80;99.90
52621;DHT22;38515;53.160;6.990;2022-07-23T00:12:30;13.80;99.90
52621;DHT22;38515;53.160;6.990;2022-07-23T00:14:56;13.80;99.90
52621;DHT22;38515;53.160;6.990;2022-07-23T00:17:22;13.80;99.90
52621;DHT22;38515;53.160;6.990;2022-07-23T00:19:48;13.80;99.90
52621;DHT22;38515;53.160;6.990;2022-07-23T00:22:13;13.80;99.90
52621;DHT22;38515;53.160;6.990;2022-07-23T00:24:39;13.80;99.90
52621;DHT22;38515;53.160;6.990;2022-07-23T00:27:05;13.80;99.90
52621;DHT22;38515;53.160;6.990;2022-07-23T00:29:31;13.80;99.90
52621;DHT22;38515;53.160;6.990;2022-07-23T00:31:57;13.80;99.90
52621;DHT22;38515;53.160;6.990;2022-07-23T00:34:23;13.90;99.90
52621;DHT22;38515;53.160;6.990;2022-07-23T00:36:48;13.90;99.90
52621;DHT22;38515;53.160;6.990;2022-07-23T00:39:14;13.80;99.90
52621;DHT22;38515;53.160;6.990;2022-07-23T00:41:40;13.80;99.90
52621;DHT22;38515;53.160;6.990;2022-07-23T00:44:20;13.80;99.90
52621;DHT22;38515;53.160;6.990;2022-07-23T00:46:49;13.90;99.90
52621;DHT22;38515;53.160;6.990;2022-07-23T00:49:15;13.80;99.90
52621;DHT22;38515;53.160;6.990;2022-07-23T00:51:41;13.80;99.90
52621;DHT22;38515;53.160;6.990;2022-07-23T00:54:07;13.80;99.90
52621;DHT22;38515;53.160;6.990;2022-07-23T00:56:33;13.80;99.90
52621;DHT22;38515;53.160;6.990;2022-07-23T00:59:00;13.70;99.90
52621;DHT22;38515;53.160;6.990;2022-07-23T01:01:26;13.70;99.90
52621;DHT22;38515;53.160;6.990;2022-07-23T01:03:52;13.60;99.90
52621;DHT22;38515;53.160;6.990;2022-07-23T01:06:18;13.60;99.90
52621;DHT22;38515;53.160;6.990;2022-07-23T01:08:44;13.60;99.90
52621;DHT22;38515;53.160;6.990;2022-07-23T01:11:11;13.60;99.90
52621;DHT22;38515;53.160;6.990;2022-07-23T01:13:42;13.70;99.90
52621;DHT22;38515;53.160;6.990;2022-07-23T01:16:07;13.70;99.90
52621;DHT22;38515;53.160;6.990;2022-07-23T01:18:33;13.70;99.90
52621;DHT22;38515;53.160;6.990;2022-07-23T01:20:59;13.70;99.90
52621;DHT22;38515;53.160;6.990;2022-07-23T01:23:25;13.70;99.90
52621;DHT22;38515;53.160;6.990;2022-07-23T01:25:53;13.60;99.90
52621;DHT22;38515;53.160;6.990;2022-07-23T01:28:19;13.70;99.90
52621;DHT22;38515;53.160;6.990;2022-07-23T01:30:45;13.60;99.90
52621;DHT22;38515;53.160;6.990;2022-07-23T01:33:12;13.50;99.90
52621;DHT22;38515;53.160;6.990;2022-07-23T01:35:37;13.40;99.90
52621;DHT22;38515;53.160;6.990;2022-07-23T01:38:03;13.30;99.90
52621;DHT22;38515;53.160;6.990;2022-07-23T01:40:29;13.30;99.90
52621;DHT22;38515;53.160;6.990;2022-07-23T01:42:55;13.10;99.90
52621;DHT22;38515;53.160;6.990;2022-07-23T01:45:21;13.10;99.90
52621;DHT22;38515;53.160;6.990;2022-07-23T01:47:47;13.10;99.90
52621;DHT22;38515;53.160;6.990;2022-07-23T01:50:13;13.00;99.90
52621;DHT22;38515;53.160;6.990;2022-07-23T01:52:39;13.00;99.90
52621;DHT22;38515;53.160;6.990;2022-07-23T01:55:05;13.00;99.90
52621;DHT22;38515;53.160;6.990;2022-07-23T01:57:32;12.90;99.90
52621;DHT22;38515;53.160;6.990;2022-07-23T02:00:01;12.90;99.90
52621;DHT22;38515;53.160;6.990;2022-07-23T02:02:26;12.90;99.90
52621;DHT22;38515;53.160;6.990;2022-07-23T02:04:52;12.80;99.90
52621;DHT22;38515;53.160;6.990;2022-07-23T02:07:18;12.80;99.90
52621;DHT22;38515;53.160;6.990;2022-07-23T02:09:44;12.80;99.90
52621;DHT22;38515;53.160;6.990;2022-07-23T02:12:10;12.80;99.90
52621;DHT22;38515;53.160;6.990;2022-07-23T02:14:35;12.70;99.90
52621;DHT22;38515;53.160;6.990;2022-07-23T02:17:01;12.70;99.90
52621;DHT22;38515;53.160;6.990;2022-07-23T02:19:27;12.60;99.90
52621;DHT22;38515;53.160;6.990;2022-07-23T02:21:53;12.60;99.90
52621;DHT22;38515;53.160;6.990;2022-07-23T02:24:20;12.60;99.90
52621;DHT22;38515;53.160;6.990;2022-07-23T02:26:46;12.50;99.90
52621;DHT22;38515;53.160;6.990;2022-07-23T02:29:12;12.50;99.90
52621;DHT22;38515;53.160;6.990;2022-07-23T02:31:38;12.40;99.90
52621;DHT22;38515;53.160;6.990;2022-07-23T02:34:04;12.40;99.90
52621;DHT22;38515;53.160;6.990;2022-07-23T02:36:30;12.30;99.90
52621;DHT22;38515;53.160;6.990;2022-07-23T02:38:56;12.30;99.90
52621;DHT22;38515;53.160;6.990;2022-07-23T02:41:22;12.30;99.90
52621;DHT22;38515;53.160;6.990;2022-07-23T02:43:48;12.20;99.90
52621;DHT22;38515;53.160;6.990;2022-07-23T02:46:14;12.20;99.90
52621;DHT22;38515;53.160;6.990;2022-07-23T02:48:40;12.20;99.90
52621;DHT22;38515;53.160;6.990;2022-07-23T02:51:05;12.20;99.90
52621;DHT22;38515;53.160;6.990;2022-07-23T02:53:31;12.10;99.90
52621;DHT22;38515;53.160;6.990;2022-07-23T02:55:57;12.10;99.90
52621;DHT22;38515;53.160;6.990;2022-07-23T02:58:23;12.00;99.90
52621;DHT22;38515;53.160;6.990;2022-07-23T03:00:50;12.00;99.90
52621;DHT22;38515;53.160;6.990;2022-07-23T03:03:16;11.90;99.90
52621;DHT22;38515;53.160;6.990;2022-07-23T03:05:42;11.90;99.90
52621;DHT22;38515;53.160;6.990;2022-07-23T03:08:07;11.90;99.90
52621;DHT22;38515;53.160;6.990;2022-07-23T03:10:33;11.80;99.90
52621;DHT22;38515;53.160;6.990;2022-07-23T03:12:59;11.80;99.90
52621;DHT22;38515;53.160;6.990;2022-07-23T03:15:25;11.80;99.90
52621;DHT22;38515;53.160;6.990;2022-07-23T03:17:50;11.70;99.90
52621;DHT22;38515;53.160;6.990;2022-07-23T03:20:17;11.70;99.90
52621;DHT22;38515;53.160;6.990;2022-07-23T03:22:43;11.70;99.90
52621;DHT22;38515;53.160;6.990;2022-07-23T03:25:09;11.70;99.90
52621;DHT22;38515;53.160;6.990;2022-07-23T03:27:35;11.60;99.90
52621;DHT22;38515;53.160;6.990;2022-07-23T03:30:02;11.70;99.90
52621;DHT22;38515;53.160;6.990;2022-07-23T03:32:27;11.60;99.90
52621;DHT22;38515;53.160;6.990;2022-07-23T03:34:53;11.60;99.90
52621;DHT22;38515;53.160;6.990;2022-07-23T03:37:20;11.60;99.90
52621;DHT22;38515;53.160;6.990;2022-07-23T03:39:46;11.50;99.90
52621;DHT22;38515;53.160;6.990;2022-07-23T03:42:11;11.50;99.90
52621;DHT22;38515;53.160;6.990;2022-07-23T03:44:37;11.50;99.90
52621;DHT22;38515;53.160;6.990;2022-07-23T03:47:04;11.50;99.90
52621;DHT22;38515;53.160;6.990;2022-07-23T03:49:31;11.50;99.90
52621;DHT22;38515;53.160;6.990;2022-07-23T03:51:56;11.50;99.90
52621;DHT22;38515;53.160;6.990;2022-07-23T03:54:22;11.50;99.90
52621;DHT22;38515;53.160;6.990;2022-07-23T03:56:48;11.50;99.90
52621;DHT22;38515;53.160;6.990;2022-07-23T03:59:14;11.50;99.90
52621;DHT22;38515;53.160;6.990;2022-07-23T04:01:40;11.50;99.90
52621;DHT22;38515;53.160;6.990;2022-07-23T04:04:06;11.60;99.90
52621;DHT22;38515;53.160;6.990;2022-07-23T04:06:34;11.60;99.90
52621;DHT22;38515;53.160;6.990;2022-07-23T04:09:01;11.60;99.90
52621;DHT22;38515;53.160;6.990;2022-07-23T04:11:27;11.60;99.90
52621;DHT22;38515;53.160;6.990;2022-07-23T04:13:54;11.60;99.90
52621;DHT22;38515;53.160;6.990;2022-07-23T04:16:19;11.60;99.90
52621;DHT22;38515;53.160;6.990;2022-07-23T04:18:45;11.70;99.90
52621;DHT22;38515;53.160;6.990;2022-07-23T04:21:11;11.70;99.90
52621;DHT22;38515;53.160;6.990;2022-07-23T04:23:37;11.70;99.90
52621;DHT22;38515;53.160;6.990;2022-07-23T04:26:03;11.70;99.90
52621;DHT22;38515;53.160;6.990;2022-07-23T04:28:29;11.80;99.90
52621;DHT22;38515;53.160;6.990;2022-07-23T04:30:57;11.80;99.90
52621;DHT22;38515;53.160;6.990;2022-07-23T04:33:23;11.80;99.90
52621;DHT22;38515;53.160;6.990;2022-07-23T04:35:49;11.90;99.90
52621;DHT22;38515;53.160;6.990;2022-07-23T04:38:14;11.90;99.90
52621;DHT22;38515;53.160;6.990;2022-07-23T04:40:40;12.00;99.90
52621;DHT22;38515;53.160;6.990;2022-07-23T04:43:06;12.00;99.90
52621;DHT22;38515;53.160;6.990;2022-07-23T04:45:32;12.10;99.90
52621;DHT22;38515;53.160;6.990;2022-07-23T04:47:57;12.20;99.90
52621;DHT22;38515;53.160;6.990;2022-07-23T04:50:24;12.30;99.90
52621;DHT22;38515;53.160;6.990;2022-07-23T04:52:50;12.40;99.90
52621;DHT22;38515;53.160;6.990;2022-07-23T04:55:16;12.50;99.90
52621;DHT22;38515;53.160;6.990;2022-07-23T04:57:42;12.60;99.90
52621;DHT22;38515;53.160;6.990;2022-07-23T05:00:09;12.70;99.90
52621;DHT22;38515;53.160;6.990;2022-07-23T05:02:35;12.80;99.90
52621;DHT22;38515;53.160;6.990;2022-07-23T05:05:01;12.90;99.90
52621;DHT22;38515;53.160;6.990;2022-07-23T05:07:26;13.00;99.90
52621;DHT22;38515;53.160;6.990;2022-07-23T05:09:52;13.10;99.90
52621;DHT22;38515;53.160;6.990;2022-07-23T05:12:18;13.20;99.90
52621;DHT22;38515;53.160;6.990;2022-07-23T05:14:44;13.30;99.90
52621;DHT22;38515;53.160;6.990;2022-07-23T05:17:09;13.40;99.90
52621;DHT22;38515;53.160;6.990;2022-07-23T05:19:35;13.50;99.90
52621;DHT22;38515;53.160;6.990;2022-07-23T05:22:02;13.60;99.90
52621;DHT22;38515;53.160;6.990;2022-07-23T05:24:27;13.60;99.90
52621;DHT22;38515;53.160;6.990;2022-07-23T05:26:54;13.70;99.90
52621;DHT22;38515;53.160;6.990;2022-07-23T05:29:19;13.80;99.90
52621;DHT22;38515;53.160;6.990;2022-07-23T05:31:45;13.90;99.90
52621;DHT22;38515;53.160;6.990;2022-07-23T05:34:11;14.00;99.90
52621;DHT22;38515;53.160;6.990;2022-07-23T05:36:37;14.10;99.90
52621;DHT22;38515;53.160;6.990;2022-07-23T05:39:03;14.20;99.90
52621;DHT22;38515;53.160;6.990;2022-07-23T05:41:29;14.30;99.90
52621;DHT22;38515;53.160;6.990;2022-07-23T05:43:55;14.30;99.90
52621;DHT22;38515;53.160;6.990;2022-07-23T05:46:21;14.40;99.90
52621;DHT22;38515;53.160;6.990;2022-07-23T05:48:47;14.50;99.90
52621;DHT22;38515;53.160;6.990;2022-07-23T05:51:20;14.60;99.90
52621;DHT22;38515;53.160;6.990;2022-07-23T05:53:47;14.70;99.90
52621;DHT22;38515;53.160;6.990;2022-07-23T05:56:13;14.80;99.90
52621;DHT22;38515;53.160;6.990;2022-07-23T05:58:39;14.80;99.90
52621;DHT22;38515;53.160;6.990;2022-07-23T06:01:05;14.90;99.90
52621;DHT22;38515;53.160;6.990;2022-07-23T06:03:31;15.00;99.90
52621;DHT22;38515;53.160;6.990;2022-07-23T06:05:56;15.00;99.90
52621;DHT22;38515;53.160;6.990;2022-07-23T06:08:26;15.00;99.90
52621;DHT22;38515;53.160;6.990;2022-07-23T06:10:53;15.10;99.90
52621;DHT22;38515;53.160;6.990;2022-07-23T06:13:20;15.10;99.90
52621;DHT22;38515;53.160;6.990;2022-07-23T06:15:49;15.20;99.90
52621;DHT22;38515;53.160;6.990;2022-07-23T06:18:15;15.20;99.90
52621;DHT22;38515;53.160;6.990;2022-07-23T06:20:41;15.30;99.90
52621;DHT22;38515;53.160;6.990;2022-07-23T06:23:06;15.50;99.90
52621;DHT22;38515;53.160;6.990;2022-07-23T06:25:32;15.40;99.90
52621;DHT22;38515;53.160;6.990;2022-07-23T06:28:01;15.60;99.90
52621;DHT22;38515;53.160;6.990;2022-07-23T06:30:27;15.70;99.90
52621;DHT22;38515;53.160;6.990;2022-07-23T06:32:53;15.80;99.90
52621;DHT22;38515;53.160;6.990;2022-07-23T06:35:19;15.80;99.90
52621;DHT22;38515;53.160;6.990;2022-07-23T06:37:45;15.90;99.90
52621;DHT22;38515;53.160;6.990;2022-07-23T06:40:11;15.90;99.90
52621;DHT22;38515;53.160;6.990;2022-07-23T06:42:38;16.00;99.90
52621;DHT22;38515;53.160;6.990;2022-07-23T06:45:06;16.10;99.90
52621;DHT22;38515;53.160;6.990;2022-07-23T06:47:32;16.20;99.90
52621;DHT22;38515;53.160;6.990;2022-07-23T06:49:58;16.60;99.90
52621;DHT22;38515;53.160;6.990;2022-07-23T06:52:24;16.80;99.90
52621;DHT22;38515;53.160;6.990;2022-07-23T06:54:52;17.00;99.90
52621;DHT22;38515;53.160;6.990;2022-07-23T06:57:18;17.10;99.90
52621;DHT22;38515;53.160;6.990;2022-07-23T06:59:44;17.20;99.90
52621;DHT22;38515;53.160;6.990;2022-07-23T07:02:10;17.20;99.90
52621;DHT22;38515;53.160;6.990;2022-07-23T07:04:36;17.20;99.90
52621;DHT22;38515;53.160;6.990;2022-07-23T07:07:02;17.20;99.90
52621;DHT22;38515;53.160;6.990;2022-07-23T07:09:32;17.20;99.90
52621;DHT22;38515;53.160;6.990;2022-07-23T07:12:02;17.10;99.90
52621;DHT22;38515;53.160;6.990;2022-07-23T07:14:28;17.10;99.90
52621;DHT22;38515;53.160;6.990;2022-07-23T07:16:55;17.10;99.90
52621;DHT22;38515;53.160;6.990;2022-07-23T07:19:23;17.10;99.90
52621;DHT22;38515;53.160;6.990;2022-07-23T07:21:51;17.10;99.90
52621;DHT22;38515;53.160;6.990;2022-07-23T07:24:21;17.00;99.90
52621;DHT22;38515;53.160;6.990;2022-07-23T07:26:48;17.00;99.90
52621;DHT22;38515;53.160;6.990;2022-07-23T07:29:16;17.00;99.90
52621;DHT22;38515;53.160;6.990;2022-07-23T07:31:44;17.00;99.90
52621;DHT22;38515;53.160;6.990;2022-07-23T07:34:12;17.00;99.90
52621;DHT22;38515;53.160;6.990;2022-07-23T07:36:39;17.00;99.90
52621;DHT22;38515;53.160;6.990;2022-07-23T07:39:06;17.00;99.90
52621;DHT22;38515;53.160;6.990;2022-07-23T07:41:37;17.10;99.90
52621;DHT22;38515;53.160;6.990;2022-07-23T07:44:10;17.10;99.90
52621;DHT22;38515;53.160;6.990;2022-07-23T07:46:36;17.20;99.90
52621;DHT22;38515;53.160;6.990;2022-07-23T07:49:03;17.30;99.90
52621;DHT22;38515;53.160;6.990;2022-07-23T07:51:35;17.30;99.90
52621;DHT22;38515;53.160;6.990;2022-07-23T07:54:04;17.40;99.90
52621;DHT22;38515;53.160;6.990;2022-07-23T07:56:31;17.50;99.90
52621;DHT22;38515;53.160;6.990;2022-07-23T07:59:02;17.60;99.90
52621;DHT22;38515;53.160;6.990;2022-07-23T08:01:31;17.70;99.90
52621;DHT22;38515;53.160;6.990;2022-07-23T08:03:58;17.90;99.90
52621;DHT22;38515;53.160;6.990;2022-07-23T08:06:26;18.10;99.90
52621;DHT22;38515;53.160;6.990;2022-07-23T08:08:53;18.20;99.90
52621;DHT22;38515;53.160;6.990;2022-07-23T08:11:22;18.30;99.90
52621;DHT22;38515;53.160;6.990;2022-07-23T08:13:49;18.40;99.90
52621;DHT22;38515;53.160;6.990;2022-07-23T08:16:15;18.50;99.90
52621;DHT22;38515;53.160;6.990;2022-07-23T08:18:44;18.50;99.90
52621;DHT22;38515;53.160;6.990;2022-07-23T08:21:13;18.40;99.90
52621;DHT22;38515;53.160;6.990;2022-07-23T08:23:40;18.30;99.90
52621;DHT22;38515;53.160;6.990;2022-07-23T08:26:06;18.10;99.90
52621;DHT22;38515;53.160;6.990;2022-07-23T08:28:34;17.90;99.90
52621;DHT22;38515;53.160;6.990;2022-07-23T08:31:02;17.80;99.90
52621;DHT22;38515;53.160;6.990;2022-07-23T08:33:31;17.70;99.90
52621;DHT22;38515;53.160;6.990;2022-07-23T08:35:58;17.60;99.90
52621;DHT22;38515;53.160;6.990;2022-07-23T08:38:26;17.70;99.90
52621;DHT22;38515;53.160;6.990;2022-07-23T08:40:58;17.90;99.90
52621;DHT22;38515;53.160;6.990;2022-07-23T08:43:26;18.30;99.90
52621;DHT22;38515;53.160;6.990;2022-07-23T08:45:55;18.60;99.90
52621;DHT22;38515;53.160;6.990;2022-07-23T08:48:25;18.80;99.90
52621;DHT22;38515;53.160;6.990;2022-07-23T08:50:55;19.10;99.90
52621;DHT22;38515;53.160;6.990;2022-07-23T08:53:26;19.20;99.90
52621;DHT22;38515;53.160;6.990;2022-07-23T08:55:55;19.20;99.90
52621;DHT22;38515;53.160;6.990;2022-07-23T08:58:24;19.10;99.90
52621;DHT22;38515;53.160;6.990;2022-07-23T09:00:52;18.90;99.90
52621;DHT22;38515;53.160;6.990;2022-07-23T09:03:23;18.80;99.90
52621;DHT22;38515;53.160;6.990;2022-07-23T09:05:51;18.90;99.90
52621;DHT22;38515;53.160;6.990;2022-07-23T09:08:21;18.80;99.90
52621;DHT22;38515;53.160;6.990;2022-07-23T09:10:52;18.90;99.90
52621;DHT22;38515;53.160;6.990;2022-07-23T09:13:32;19.00;99.90
52621;DHT22;38515;53.160;6.990;2022-07-23T09:18:35;19.10;99.90
52621;DHT22;38515;53.160;6.990;2022-07-23T09:21:08;19.00;99.90
52621;DHT22;38515;53.160;6.990;2022-07-23T09:23:38;18.90;99.90
52621;DHT22;38515;53.160;6.990;2022-07-23T09:26:21;19.00;99.90
52621;DHT22;38515;53.160;6.990;2022-07-23T09:31:59;18.80;99.90
52621;DHT22;38515;53.160;6.990;2022-07-23T09:34:38;19.10;99.90
52621;DHT22;38515;53.160;6.990;2022-07-23T09:37:20;19.10;99.90
52621;DHT22;38515;53.160;6.990;2022-07-23T09:39:48;19.30;99.90
52621;DHT22;38515;53.160;6.990;2022-07-23T09:42:15;19.50;99.90
52621;DHT22;38515;53.160;6.990;2022-07-23T09:44:44;19.80;99.90
52621;DHT22;38515;53.160;6.990;2022-07-23T09:47:11;20.00;99.90
52621;DHT22;38515;53.160;6.990;2022-07-23T09:49:40;20.10;99.90
52621;DHT22;38515;53.160;6.990;2022-07-23T09:52:06;20.20;99.90
52621;DHT22;38515;53.160;6.990;2022-07-23T09:54:36;20.40;99.90
52621;DHT22;38515;53.160;6.990;2022-07-23T09:57:06;20.30;99.90
52621;DHT22;38515;53.160;6.990;2022-07-23T09:59:39;20.50;99.90
52621;DHT22;38515;53.160;6.990;2022-07-23T10:02:07;20.40;99.90
52621;DHT22;38515;53.160;6.990;2022-07-23T10:04:36;20.10;99.90
52621;DHT22;38515;53.160;6.990;2022-07-23T10:07:07;19.80;99.90
52621;DHT22;38515;53.160;6.990;2022-07-23T10:09:37;19.70;99.90
52621;DHT22;38515;53.160;6.990;2022-07-23T10:12:11;19.70;99.90
52621;DHT22;38515;53.160;6.990;2022-07-23T10:14:45;19.70;99.90
52621;DHT22;38515;53.160;6.990;2022-07-23T10:17:18;19.80;99.90
52621;DHT22;38515;53.160;6.990;2022-07-23T10:19:52;19.90;99.90
52621;DHT22;38515;53.160;6.990;2022-07-23T10:22:24;19.90;99.90
52621;DHT22;38515;53.160;6.990;2022-07-23T10:25:19;19.80;99.90
52621;DHT22;38515;53.160;6.990;2022-07-23T10:28:04;19.90;99.90
52621;DHT22;38515;53.160;6.990;2022-07-23T10:31:02;20.00;99.90
52621;DHT22;38515;53.160;6.990;2022-07-23T10:33:52;20.00;99.90
52621;DHT22;38515;53.160;6.990;2022-07-23T10:36:32;20.10;99.90
52621;DHT22;38515;53.160;6.990;2022-07-23T10:39:19;20.20;99.90
52621;DHT22;38515;53.160;6.990;2022-07-23T10:42:15;20.20;99.90
52621;DHT22;38515;53.160;6.990;2022-07-23T10:44:44;20.00;99.90
52621;DHT22;38515;53.160;6.990;2022-07-23T10:47:27;19.90;99.90
52621;DHT22;38515;53.160;6.990;2022-07-23T10:50:27;19.80;99.90
52621;DHT22;38515;53.160;6.990;2022-07-23T10:58:05;19.90;99.90
52621;DHT22;38515;53.160;6.990;2022-07-23T11:00:34;20.00;99.90
52621;DHT22;38515;53.160;6.990;2022-07-23T11:03:04;19.90;99.90
52621;DHT22;38515;53.160;6.990;2022-07-23T11:05:45;19.90;99.90
52621;DHT22;38515;53.160;6.990;2022-07-23T11:08:15;20.00;99.90
52621;DHT22;38515;53.160;6.990;2022-07-23T11:10:48;20.00;99.90
52621;DHT22;38515;53.160;6.990;2022-07-23T11:13:28;19.90;99.90
52621;DHT22;38515;53.160;6.990;2022-07-23T11:16:05;19.80;99.90
52621;DHT22;38515;53.160;6.990;2022-07-23T11:21:40;19.80;99.90
52621;DHT22;38515;53.160;6.990;2022-07-23T11:24:09;19.70;99.90
52621;DHT22;38515;53.160;6.990;2022-07-23T11:29:47;19.70;99.90
52621;DHT22;38515;53.160;6.990;2022-07-23T11:32:35;19.60;99.90
52621;DHT22;38515;53.160;6.990;2022-07-23T11:35:19;19.70;99.90
52621;DHT22;38515;53.160;6.990;2022-07-23T11:37:48;19.50;99.90
52621;DHT22;38515;53.160;6.990;2022-07-23T11:40:17;19.50;99.90
52621;DHT22;38515;53.160;6.990;2022-07-23T11:42:53;19.60;99.90
52621;DHT22;38515;53.160;6.990;2022-07-23T11:45:24;19.70;99.90
52621;DHT22;38515;53.160;6.990;2022-07-23T11:47:51;19.70;99.90
52621;DHT22;38515;53.160;6.990;2022-07-23T11:50:18;19.70;99.90
52621;DHT22;38515;53.160;6.990;2022-07-23T11:52:45;19.80;99.90
52621;DHT22;38515;53.160;6.990;2022-07-23T11:55:13;19.90;99.90
52621;DHT22;38515;53.160;6.990;2022-07-23T11:57:42;19.90;99.90
52621;DHT22;38515;53.160;6.990;2022-07-23T12:00:17;20.10;99.90
52621;DHT22;38515;53.160;6.990;2022-07-23T12:02:46;20.00;99.90
52621;DHT22;38515;53.160;6.990;2022-07-23T12:05:17;20.00;99.90
52621;DHT22;38515;53.160;6.990;2022-07-23T12:07:45;20.00;99.90
52621;DHT22;38515;53.160;6.990;2022-07-23T12:10:21;19.80;99.90
52621;DHT22;38515;53.160;6.990;2022-07-23T12:15:21;19.70;99.90
52621;DHT22;38515;53.160;6.990;2022-07-23T12:17:50;19.70;99.90
52621;DHT22;38515;53.160;6.990;2022-07-23T12:20:22;19.70;99.90
52621;DHT22;38515;53.160;6.990;2022-07-23T12:22:52;19.70;99.90
52621;DHT22;38515;53.160;6.990;2022-07-23T12:25:25;19.60;99.90
52621;DHT22;38515;53.160;6.990;2022-07-23T12:28:04;19.50;99.90
52621;DHT22;38515;53.160;6.990;2022-07-23T12:33:24;19.40;99.90
52621;DHT22;38515;53.160;6.990;2022-07-23T12:35:56;19.40;99.90
52621;DHT22;38515;53.160;6.990;2022-07-23T12:38:25;19.50;99.90
52621;DHT22;38515;53.160;6.990;2022-07-23T12:40:56;19.70;99.90
52621;DHT22;38515;53.160;6.990;2022-07-23T12:43:31;19.80;99.90
52621;DHT22;38515;53.160;6.990;2022-07-23T12:46:09;20.10;99.90
52621;DHT22;38515;53.160;6.990;2022-07-23T12:48:38;20.30;99.90
52621;DHT22;38515;53.160;6.990;2022-07-23T12:51:18;20.30;99.90
52621;DHT22;38515;53.160;6.990;2022-07-23T12:53:47;20.30;99.90
52621;DHT22;38515;53.160;6.990;2022-07-23T12:56:29;20.20;99.90
52621;DHT22;38515;53.160;6.990;2022-07-23T12:59:04;20.20;99.90
52621;DHT22;38515;53.160;6.990;2022-07-23T13:01:35;20.20;99.90
52621;DHT22;38515;53.160;6.990;2022-07-23T13:04:18;20.30;99.90
52621;DHT22;38515;53.160;6.990;2022-07-23T13:06:52;20.40;99.90
52621;DHT22;38515;53.160;6.990;2022-07-23T13:09:21;20.40;99.90
52621;DHT22;38515;53.160;6.990;2022-07-23T13:11:48;20.30;99.90
52621;DHT22;38515;53.160;6.990;2022-07-23T13:14:16;20.30;99.90
52621;DHT22;38515;53.160;6.990;2022-07-23T13:16:45;20.40;99.90
52621;DHT22;38515;53.160;6.990;2022-07-23T13:19:12;20.20;99.90
52621;DHT22;38515;53.160;6.990;2022-07-23T13:21:40;20.10;99.90
52621;DHT22;38515;53.160;6.990;2022-07-23T13:24:09;20.10;99.90
52621;DHT22;38515;53.160;6.990;2022-07-23T13:26:38;20.10;99.90
52621;DHT22;38515;53.160;6.990;2022-07-23T13:29:05;20.00;99.90
52621;DHT22;38515;53.160;6.990;2022-07-23T13:31:34;20.10;99.90
52621;DHT22;38515;53.160;6.990;2022-07-23T13:34:01;20.10;99.90
52621;DHT22;38515;53.160;6.990;2022-07-23T13:36:28;20.10;99.90
52621;DHT22;38515;53.160;6.990;2022-07-23T13:38:55;20.10;99.90
52621;DHT22;38515;53.160;6.990;2022-07-23T13:41:22;20.00;99.90
52621;DHT22;38515;53.160;6.990;2022-07-23T13:43:49;20.00;99.90
52621;DHT22;38515;53.160;6.990;2022-07-23T13:46:16;20.10;99.90
52621;DHT22;38515;53.160;6.990;2022-07-23T13:48:48;20.10;99.90
52621;DHT22;38515;53.160;6.990;2022-07-23T13:51:15;20.10;99.90
52621;DHT22;38515;53.160;6.990;2022-07-23T13:53:44;20.00;99.90
52621;DHT22;38515;53.160;6.990;2022-07-23T13:56:11;19.90;99.90
52621;DHT22;38515;53.160;6.990;2022-07-23T13:58:38;19.80;99.90
52621;DHT22;38515;53.160;6.990;2022-07-23T14:01:08;19.80;99.90
52621;DHT22;38515;53.160;6.990;2022-07-23T14:03:35;19.80;99.90
52621;DHT22;38515;53.160;6.990;2022-07-23T14:06:03;19.90;99.90
52621;DHT22;38515;53.160;6.990;2022-07-23T14:08:31;19.80;99.90
52621;DHT22;38515;53.160;6.990;2022-07-23T14:10:59;20.10;99.90
52621;DHT22;38515;53.160;6.990;2022-07-23T14:13:29;20.20;99.90
52621;DHT22;38515;53.160;6.990;2022-07-23T14:15:56;20.30;99.90
52621;DHT22;38515;53.160;6.990;2022-07-23T14:18:25;20.40;99.90
52621;DHT22;38515;53.160;6.990;2022-07-23T14:20:54;20.40;99.90
52621;DHT22;38515;53.160;6.990;2022-07-23T14:23:20;20.40;99.90
52621;DHT22;38515;53.160;6.990;2022-07-23T14:25:48;20.40;99.90
52621;DHT22;38515;53.160;6.990;2022-07-23T14:28:15;20.50;99.90
52621;DHT22;38515;53.160;6.990;2022-07-23T14:30:42;20.60;99.90
52621;DHT22;38515;53.160;6.990;2022-07-23T14:33:10;20.70;99.90
52621;DHT22;38515;53.160;6.990;2022-07-23T14:35:39;20.80;99.90
52621;DHT22;38515;53.160;6.990;2022-07-23T14:38:05;20.80;99.90
52621;DHT22;38515;53.160;6.990;2022-07-23T14:40:33;20.80;99.90
52621;DHT22;38515;53.160;6.990;2022-07-23T14:43:03;20.80;99.90
52621;DHT22;38515;53.160;6.990;2022-07-23T14:45:36;20.90;99.90
52621;DHT22;38515;53.160;6.990;2022-07-23T14:48:04;20.90;99.90
52621;DHT22;38515;53.160;6.990;2022-07-23T14:50:30;20.90;99.90
52621;DHT22;38515;53.160;6.990;2022-07-23T14:53:00;20.80;99.90
52621;DHT22;38515;53.160;6.990;2022-07-23T14:55:26;20.90;99.90
52621;DHT22;38515;53.160;6.990;2022-07-23T14:57:53;20.90;99.90
52621;DHT22;38515;53.160;6.990;2022-07-23T15:00:21;21.00;99.90
52621;DHT22;38515;53.160;6.990;2022-07-23T15:02:48;21.00;99.90
52621;DHT22;38515;53.160;6.990;2022-07-23T15:05:19;21.10;99.90
52621;DHT22;38515;53.160;6.990;2022-07-23T15:07:46;21.20;99.90
52621;DHT22;38515;53.160;6.990;2022-07-23T15:10:14;21.20;99.90
52621;DHT22;38515;53.160;6.990;2022-07-23T15:12:48;21.30;99.90
52621;DHT22;38515;53.160;6.990;2022-07-23T15:15:14;21.30;99.90
52621;DHT22;38515;53.160;6.990;2022-07-23T15:17:42;21.30;99.90
52621;DHT22;38515;53.160;6.990;2022-07-23T15:20:10;21.20;99.90
52621;DHT22;38515;53.160;6.990;2022-07-23T15:22:37;21.10;99.90
52621;DHT22;38515;53.160;6.990;2022-07-23T15:25:08;21.00;99.90
52621;DHT22;38515;53.160;6.990;2022-07-23T15:27:38;21.00;99.90
52621;DHT22;38515;53.160;6.990;2022-07-23T15:30:07;20.90;99.90
52621;DHT22;38515;53.160;6.990;2022-07-23T15:32:35;20.90;99.90
52621;DHT22;38515;53.160;6.990;2022-07-23T15:35:02;20.90;99.90
52621;DHT22;38515;53.160;6.990;2022-07-23T15:37:30;21.00;99.90
52621;DHT22;38515;53.160;6.990;2022-07-23T15:39:57;21.10;99.90
52621;DHT22;38515;53.160;6.990;2022-07-23T15:42:24;21.20;99.90
52621;DHT22;38515;53.160;6.990;2022-07-23T15:44:50;21.30;99.90
52621;DHT22;38515;53.160;6.990;2022-07-23T15:47:18;21.40;99.90
52621;DHT22;38515;53.160;6.990;2022-07-23T15:49:46;21.30;99.90
52621;DHT22;38515;53.160;6.990;2022-07-23T15:52:17;21.30;99.90
52621;DHT22;38515;53.160;6.990;2022-07-23T15:54:43;21.30;99.90
52621;DHT22;38515;53.160;6.990;2022-07-23T15:57:12;21.20;99.90
52621;DHT22;38515;53.160;6.990;2022-07-23T15:59:41;21.10;99.90